CheckWX is a tool to help pilots better visualize weather data.  It is not intended as a substitute for an official pre-flight weather briefing.

15:06:25 UTC

KMFD TAF
Mansfield Lahm Regional Airport
Mansfield, Ohio, USA
KMFD 231413Z 2314/2412 22020G30KT P6SM VCSH SCT060 OVC120 FM231600 27020G30KT P6SM SCT050 BKN250 FM240200 29006KT P6SM FEW250

May-23@
14:00 UTC

May-23 @ 14:00 UTC

May-23@
16:00 UTC

May-23 @ 16:00 UTC

KMFD 231413Z 2314/2412 22020G30KT P6SM VCSH SCT060 OVC120
Wind
  • 220° at 20 KTS
  • {Gusting to 30 KTS
Cloud Levels
  • Scattered at 6,000' AGL
  • Overcast at 12,000' AGL

May-23@
16:00 UTC

May-23 @ 16:00 UTC

May-24@
02:00 UTC

May-24 @ 02:00 UTC

FM231600 27020G30KT P6SM SCT050 BKN250

From

From Standard forecast or significant change

Wind
  • 270° at 20 KTS
  • {Gusting to 30 KTS
Cloud Levels
  • Scattered at 5,000' AGL
  • Broken at 25,000' AGL

May-24@
02:00 UTC

May-24 @ 02:00 UTC

May-24@
12:00 UTC

May-24 @ 12:00 UTC

FM240200 29006KT P6SM FEW250

From

From Standard forecast or significant change

Wind
  • 290° at 6 KTS
Cloud Levels
  • Few at 25,000' AGL